createdAt,value
2023-02-08T00:00:23.147Z,19.03
2023-02-08T00:02:51.222Z,20.87
2023-02-08T00:05:19.542Z,20.27
2023-02-08T00:07:48.528Z,19.73
2023-02-08T00:10:16.180Z,20.43
2023-02-08T00:12:43.842Z,20.63
2023-02-08T00:15:11.507Z,20.70
2023-02-08T00:17:39.406Z,22.03
2023-02-08T00:20:07.650Z,20.07
2023-02-08T00:22:35.275Z,22.00
2023-02-08T00:25:04.367Z,22.13
2023-02-08T00:27:32.060Z,21.13
2023-02-08T00:29:59.740Z,21.23
2023-02-08T00:32:27.414Z,20.73
2023-02-08T00:34:55.102Z,21.57
2023-02-08T00:37:22.943Z,22.23
2023-02-08T00:39:51.033Z,20.67
2023-02-08T00:42:20.071Z,20.73
2023-02-08T00:44:47.736Z,20.80
2023-02-08T00:47:15.433Z,21.47
2023-02-08T00:49:43.100Z,21.03
2023-02-08T00:52:10.767Z,19.63
2023-02-08T00:54:38.557Z,20.73
2023-02-08T00:57:06.239Z,42.83
2023-02-08T00:59:35.368Z,26.50
2023-02-08T01:02:03.112Z,22.30
2023-02-08T01:04:30.809Z,21.30
2023-02-08T01:06:58.519Z,24.73
2023-02-08T01:09:26.241Z,23.53
2023-02-08T01:11:53.965Z,21.73
2023-02-08T01:14:21.625Z,23.87
2023-02-08T01:16:50.753Z,33.80
2023-02-08T01:19:18.431Z,26.00
2023-02-08T01:21:46.171Z,24.00
2023-02-08T01:24:13.913Z,23.53
2023-02-08T01:26:41.730Z,24.53
2023-02-08T01:29:09.475Z,24.67
2023-02-08T01:31:38.711Z,23.83
2023-02-08T01:34:08.916Z,25.27
2023-02-08T01:36:37.304Z,32.20
2023-02-08T01:39:06.136Z,23.00
2023-02-08T01:41:35.738Z,25.23
2023-02-08T01:44:07.685Z,23.87
2023-02-08T01:46:37.229Z,21.90
2023-02-08T01:49:09.454Z,23.30
2023-02-08T01:51:39.496Z,21.47
2023-02-08T01:54:08.703Z,23.10
2023-02-08T01:56:38.903Z,22.57
2023-02-08T01:59:10.297Z,22.33
2023-02-08T02:01:39.973Z,22.07
2023-02-08T02:04:10.126Z,21.60
2023-02-08T02:06:42.187Z,22.13
2023-02-08T02:09:26.086Z,21.27
2023-02-08T02:11:55.853Z,21.60
2023-02-08T02:14:24.518Z,22.17
2023-02-08T02:16:52.245Z,22.87
2023-02-08T02:19:27.657Z,22.83
2023-02-08T02:22:05.251Z,21.47
2023-02-08T02:25:08.582Z,22.00
2023-02-08T02:27:45.311Z,21.20
2023-02-08T02:31:01.322Z,22.93
2023-02-08T02:33:46.896Z,22.17
2023-02-08T02:36:19.451Z,21.80
2023-02-08T02:38:58.076Z,20.63
2023-02-08T02:41:50.481Z,21.60
2023-02-08T02:44:23.380Z,22.00
2023-02-08T02:46:56.837Z,21.93
2023-02-08T02:49:28.237Z,22.13
2023-02-08T02:51:59.926Z,20.90
2023-02-08T02:54:32.068Z,21.93
2023-02-08T02:57:02.840Z,21.17
2023-02-08T02:59:33.981Z,21.43
2023-02-08T03:02:03.626Z,21.97
2023-02-08T03:04:54.157Z,22.47
2023-02-08T03:07:47.163Z,21.10
2023-02-08T03:10:30.079Z,21.47
2023-02-08T03:13:02.665Z,20.93
2023-02-08T03:15:36.964Z,22.00
2023-02-08T03:18:10.796Z,22.67
2023-02-08T03:20:42.934Z,22.13
2023-02-08T03:23:14.272Z,23.63
2023-02-08T03:25:48.727Z,23.13
2023-02-08T03:28:21.661Z,21.50
2023-02-08T03:30:55.379Z,23.57
2023-02-08T03:33:26.771Z,23.43
2023-02-08T03:36:00.593Z,23.60
2023-02-08T03:38:31.165Z,23.23
2023-02-08T03:41:01.213Z,22.73
2023-02-08T03:43:31.500Z,22.63
2023-02-08T03:46:06.403Z,22.70
2023-02-08T03:48:34.805Z,23.60
2023-02-08T03:51:04.899Z,22.93
2023-02-08T03:53:38.302Z,23.10
2023-02-08T03:56:09.969Z,23.13
2023-02-08T03:58:43.083Z,22.87
2023-02-08T04:01:15.299Z,22.80
2023-02-08T04:03:45.615Z,23.33
2023-02-08T04:06:14.701Z,23.33
2023-02-08T04:08:42.364Z,22.63
2023-02-08T04:11:10.048Z,22.10
2023-02-08T04:13:37.912Z,22.50
2023-02-08T04:16:06.059Z,22.40
2023-02-08T04:18:33.729Z,22.70
2023-02-08T04:21:01.382Z,22.73
2023-02-08T04:23:30.423Z,23.37
2023-02-08T04:25:58.117Z,24.13
2023-02-08T04:28:25.867Z,23.37
2023-02-08T04:30:56.774Z,23.00
2023-02-08T04:33:24.509Z,23.30
2023-02-08T04:35:52.235Z,21.93
2023-02-08T04:38:19.933Z,23.17
2023-02-08T04:40:48.935Z,24.13
2023-02-08T04:43:16.569Z,23.70
2023-02-08T04:45:44.291Z,24.10
2023-02-08T04:48:12.140Z,24.63
2023-02-08T04:50:40.381Z,22.57
2023-02-08T04:53:08.260Z,23.90
2023-02-08T04:55:36.358Z,23.80
2023-02-08T04:58:05.639Z,24.70
2023-02-08T05:00:33.347Z,22.87
2023-02-08T05:03:01.009Z,25.63
2023-02-08T05:05:28.778Z,25.07
2023-02-08T05:07:56.484Z,24.10
2023-02-08T05:10:24.299Z,23.60
2023-02-08T05:12:52.005Z,23.03
2023-02-08T05:15:21.151Z,24.67
2023-02-08T05:17:48.872Z,25.57
2023-02-08T05:20:16.637Z,25.27
2023-02-08T05:22:44.270Z,24.03
2023-02-08T05:25:12.179Z,23.57
2023-02-08T05:27:39.992Z,23.77
2023-02-08T05:30:08.763Z,23.93
2023-02-08T05:32:37.800Z,23.23
2023-02-08T05:35:05.896Z,24.60
2023-02-08T05:37:33.555Z,25.40
2023-02-08T05:40:01.253Z,25.43
2023-02-08T05:42:28.985Z,25.07
2023-02-08T05:44:56.787Z,25.13
2023-02-08T05:47:24.503Z,26.13
2023-02-08T05:49:53.552Z,25.60
2023-02-08T05:52:21.276Z,25.30
2023-02-08T05:54:48.925Z,25.33
2023-02-08T05:57:16.570Z,26.07
2023-02-08T05:59:44.194Z,26.37
2023-02-08T06:02:11.827Z,24.73
2023-02-08T06:04:39.637Z,25.73
2023-02-08T06:07:08.737Z,26.63
2023-02-08T06:09:36.402Z,25.77
2023-02-08T06:12:04.195Z,26.37
2023-02-08T06:14:31.826Z,26.80
2023-02-08T06:16:59.527Z,27.47
2023-02-08T06:19:27.229Z,27.17
2023-02-08T06:21:56.494Z,26.07
2023-02-08T06:24:25.829Z,26.37
2023-02-08T06:26:53.536Z,27.93
2023-02-08T06:29:21.259Z,26.13
2023-02-08T06:31:49.142Z,27.73
2023-02-08T06:34:16.844Z,28.07
2023-02-08T06:36:45.385Z,27.23
2023-02-08T06:39:13.184Z,27.73
2023-02-08T06:41:42.191Z,29.47
2023-02-08T06:44:09.957Z,26.83
2023-02-08T06:46:37.624Z,28.13
2023-02-08T06:49:05.308Z,27.30
2023-02-08T06:51:32.995Z,27.27
2023-02-08T06:54:00.626Z,27.10
2023-02-08T06:56:28.328Z,27.03
2023-02-08T06:58:57.538Z,26.83
2023-02-08T07:01:25.329Z,27.00
2023-02-08T07:03:53.069Z,25.30
2023-02-08T07:06:21.527Z,23.03
2023-02-08T07:08:49.234Z,25.57
2023-02-08T07:11:19.720Z,25.20
2023-02-08T07:13:48.367Z,26.63
2023-02-08T07:16:17.919Z,26.87
2023-02-08T07:18:45.851Z,26.17
2023-02-08T07:21:13.811Z,28.13
2023-02-08T07:23:41.791Z,26.37
2023-02-08T07:26:11.936Z,28.00
2023-02-08T07:28:40.316Z,26.67
2023-02-08T07:31:08.983Z,26.73
2023-02-08T07:33:39.846Z,28.27
2023-02-08T07:36:08.910Z,25.53
2023-02-08T07:38:36.769Z,25.87
2023-02-08T07:41:05.837Z,24.63
2023-02-08T07:43:34.746Z,27.00
2023-02-08T07:46:06.861Z,24.97
2023-02-08T07:48:34.671Z,25.13
2023-02-08T07:51:03.955Z,26.37
2023-02-08T07:53:32.254Z,25.83
2023-02-08T07:56:00.246Z,25.50
2023-02-08T07:58:28.252Z,25.23
2023-02-08T08:00:56.065Z,26.57
2023-02-08T08:03:24.635Z,25.53
2023-02-08T08:05:54.899Z,25.70
2023-02-08T08:08:24.102Z,26.30
2023-02-08T08:10:51.812Z,26.77
2023-02-08T08:13:19.454Z,25.27
2023-02-08T08:15:48.150Z,25.73
2023-02-08T08:18:15.954Z,23.83
2023-02-08T08:20:43.665Z,22.53
2023-02-08T08:23:11.447Z,24.17
2023-02-08T08:25:40.536Z,22.70
2023-02-08T08:28:08.291Z,23.67
2023-02-08T08:30:36.167Z,23.00
2023-02-08T08:33:03.912Z,20.07
2023-02-08T08:35:31.582Z,19.90
2023-02-08T08:37:59.228Z,20.03
2023-02-08T08:40:26.964Z,19.17
2023-02-08T08:42:56.006Z,17.90
2023-02-08T08:45:23.711Z,17.73
2023-02-08T08:48:51.730Z,17.27
2023-02-08T08:51:19.530Z,16.93
2023-02-08T08:53:47.249Z,17.07
2023-02-08T08:56:14.984Z,16.43
2023-02-08T08:58:43.406Z,16.70
2023-02-08T09:01:11.158Z,17.13
2023-02-08T09:03:38.890Z,15.73
2023-02-08T09:06:08.237Z,15.40
2023-02-08T09:08:35.971Z,16.43
2023-02-08T09:11:08.033Z,15.80
2023-02-08T09:13:37.238Z,16.50
2023-02-08T09:16:09.155Z,15.27
2023-02-08T09:20:46.241Z,14.80
2023-02-08T09:23:15.097Z,15.77
2023-02-08T09:25:42.762Z,16.27
2023-02-08T09:28:10.497Z,16.97
2023-02-08T09:30:38.224Z,16.67
2023-02-08T09:33:05.969Z,16.33
2023-02-08T09:35:33.668Z,19.03
2023-02-08T09:38:04.517Z,17.03
2023-02-08T09:40:38.084Z,16.63
2023-02-08T09:43:10.146Z,14.27
2023-02-08T09:45:54.313Z,14.93
2023-02-08T09:48:27.776Z,13.33
2023-02-08T09:50:57.617Z,13.87
2023-02-08T09:53:32.599Z,12.60
2023-02-08T09:56:02.061Z,12.50
2023-02-08T09:58:34.165Z,13.10
2023-02-08T10:01:04.523Z,12.53
2023-02-08T10:03:37.032Z,11.43
2023-02-08T10:06:06.096Z,12.27
2023-02-08T10:08:36.200Z,13.17
2023-02-08T10:11:10.386Z,11.93
2023-02-08T10:13:46.211Z,10.70
2023-02-08T10:16:21.287Z,11.60
2023-02-08T10:18:56.052Z,9.53
2023-02-08T10:21:33.982Z,10.20
2023-02-08T10:24:24.241Z,9.33
2023-02-08T10:26:57.774Z,9.83
2023-02-08T10:29:39.592Z,9.30
2023-02-08T10:32:18.563Z,10.93
2023-02-08T10:34:47.999Z,8.27
2023-02-08T10:37:18.121Z,9.13
2023-02-08T10:39:47.728Z,8.70
2023-02-08T10:42:17.289Z,8.53
2023-02-08T10:44:56.884Z,7.20
2023-02-08T10:47:34.782Z,7.40
2023-02-08T10:50:04.787Z,7.07
2023-02-08T10:52:32.459Z,7.00
2023-02-08T10:55:02.302Z,7.30
2023-02-08T10:57:33.000Z,7.07
2023-02-08T11:00:03.412Z,8.00
2023-02-08T11:02:33.880Z,7.70
2023-02-08T11:05:03.596Z,7.80
2023-02-08T11:07:34.041Z,7.77
2023-02-08T11:10:22.344Z,8.67
2023-02-08T11:13:01.115Z,7.53
2023-02-08T11:15:40.974Z,8.17
2023-02-08T11:18:19.561Z,8.23
2023-02-08T11:20:50.018Z,10.47
2023-02-08T11:23:22.456Z,9.07
2023-02-08T11:25:52.549Z,15.37
2023-02-08T11:28:25.314Z,9.50
2023-02-08T11:30:57.915Z,8.03
2023-02-08T11:33:27.314Z,6.33
2023-02-08T11:36:03.255Z,6.50
2023-02-08T11:38:32.324Z,6.60
2023-02-08T11:41:03.385Z,7.00
2023-02-08T11:43:32.546Z,6.67
2023-02-08T11:46:00.891Z,6.47
2023-02-08T11:48:37.566Z,5.87
2023-02-08T11:51:05.591Z,5.53
2023-02-08T11:53:37.745Z,5.50
2023-02-08T11:56:15.783Z,6.67
2023-02-08T11:58:43.592Z,5.33
2023-02-08T12:01:20.094Z,5.90
2023-02-08T12:03:50.197Z,5.40
2023-02-08T12:06:34.212Z,5.90
2023-02-08T12:09:06.316Z,5.17
2023-02-08T12:11:41.391Z,5.60
2023-02-08T12:14:36.746Z,5.20
2023-02-08T12:17:16.769Z,5.27
2023-02-08T12:20:22.593Z,4.43
2023-02-08T12:22:55.753Z,4.70
2023-02-08T12:25:28.846Z,4.27
2023-02-08T12:28:02.790Z,4.07
2023-02-08T12:30:34.455Z,5.07
2023-02-08T12:33:17.254Z,5.10
2023-02-08T12:36:06.981Z,5.10
2023-02-08T12:39:19.638Z,4.60
2023-02-08T12:41:56.231Z,5.13
2023-02-08T12:44:33.519Z,10.77
2023-02-08T12:47:07.295Z,8.00
2023-02-08T12:49:49.954Z,5.33
2023-02-08T12:52:26.965Z,4.73
2023-02-08T12:54:58.715Z,4.93
2023-02-08T12:57:29.617Z,5.03
2023-02-08T13:00:02.807Z,4.67
2023-02-08T13:02:33.693Z,5.03
2023-02-08T13:05:04.939Z,5.13
2023-02-08T13:07:35.020Z,5.60
2023-02-08T13:10:06.476Z,4.80
2023-02-08T13:12:35.429Z,5.03
2023-02-08T13:15:11.874Z,4.93
2023-02-08T13:17:47.114Z,5.03
2023-02-08T13:20:26.987Z,4.73
2023-02-08T13:22:57.771Z,4.30
2023-02-08T13:25:30.449Z,4.97
2023-02-08T13:28:01.917Z,5.20
2023-02-08T13:30:32.834Z,6.03
2023-02-08T13:33:06.732Z,5.83
2023-02-08T13:35:34.909Z,5.53
2023-02-08T13:38:04.881Z,5.90
2023-02-08T13:40:34.199Z,6.10
2023-02-08T13:43:03.698Z,6.30
2023-02-08T13:45:36.702Z,5.53
2023-02-08T13:48:06.511Z,5.83
2023-02-08T13:50:44.088Z,5.63
2023-02-08T13:53:12.708Z,6.50
2023-02-08T13:56:08.308Z,6.37
2023-02-08T13:59:04.752Z,4.40
2023-02-08T14:01:36.071Z,3.90
2023-02-08T14:04:39.394Z,3.20
2023-02-08T14:07:15.261Z,2.70
2023-02-08T14:09:50.234Z,3.20
2023-02-08T14:12:24.824Z,2.60
2023-02-08T14:15:29.740Z,3.00
2023-02-08T14:17:59.757Z,3.27
2023-02-08T14:20:30.754Z,2.83
2023-02-08T14:22:59.875Z,2.90
2023-02-08T14:25:29.260Z,5.33
2023-02-08T14:27:59.086Z,3.53
2023-02-08T14:30:30.349Z,5.20
2023-02-08T14:33:16.370Z,4.87
2023-02-08T14:35:52.280Z,45.17
2023-02-08T14:38:38.234Z,15.67
2023-02-08T14:41:05.923Z,6.53
2023-02-08T14:43:35.677Z,4.57
2023-02-08T14:46:43.324Z,6.50
2023-02-08T14:49:14.233Z,3.33
2023-02-08T14:51:44.148Z,3.63
2023-02-08T14:54:22.126Z,3.67
2023-02-08T14:56:56.442Z,3.60
2023-02-08T14:59:26.780Z,3.70
2023-02-08T15:01:57.872Z,2.97
2023-02-08T15:04:27.492Z,3.57
2023-02-08T15:07:14.658Z,2.90
2023-02-08T15:09:43.509Z,3.37
2023-02-08T15:12:25.710Z,3.50
2023-02-08T15:14:55.182Z,2.93
2023-02-08T15:17:31.269Z,2.90
2023-02-08T15:20:00.934Z,3.60
2023-02-08T15:22:34.984Z,2.60
2023-02-08T15:25:05.708Z,2.63
2023-02-08T15:27:34.975Z,3.47
2023-02-08T15:30:02.720Z,3.93
2023-02-08T15:32:31.056Z,3.33
2023-02-08T15:35:01.687Z,3.03
2023-02-08T15:37:32.606Z,3.53
2023-02-08T15:40:01.272Z,4.03
2023-02-08T15:42:32.793Z,3.03
2023-02-08T15:45:02.526Z,3.23
2023-02-08T15:47:32.911Z,3.47
2023-02-08T15:50:02.638Z,2.80
2023-02-08T15:52:32.568Z,2.97
2023-02-08T15:55:00.378Z,4.60
2023-02-08T15:57:35.619Z,3.40
2023-02-08T16:00:05.435Z,3.40
2023-02-08T16:02:35.225Z,3.03
2023-02-08T16:05:13.025Z,5.30
2023-02-08T16:07:47.828Z,5.17
2023-02-08T16:10:25.101Z,5.07
2023-02-08T16:12:55.081Z,8.27
2023-02-08T16:15:40.346Z,5.10
2023-02-08T16:18:32.422Z,5.67
2023-02-08T16:21:03.022Z,5.43
2023-02-08T16:23:32.535Z,5.53
2023-02-08T16:26:12.019Z,4.20
2023-02-08T16:28:40.648Z,4.47
2023-02-08T16:31:08.887Z,4.43
2023-02-08T16:33:39.584Z,4.20
2023-02-08T16:36:08.688Z,5.07
2023-02-08T16:38:36.366Z,5.40
2023-02-08T16:41:13.049Z,14.10
2023-02-08T16:43:43.820Z,12.20
2023-02-08T16:46:21.174Z,12.53
2023-02-08T16:48:54.368Z,11.73
2023-02-08T16:51:25.824Z,6.40
2023-02-08T16:53:56.653Z,4.20
2023-02-08T16:56:25.105Z,4.53
2023-02-08T16:58:52.826Z,8.87
2023-02-08T17:01:21.230Z,6.90
2023-02-08T17:03:50.098Z,6.53
2023-02-08T17:06:25.556Z,6.33
2023-02-08T17:08:53.210Z,22.70
2023-02-08T17:11:20.945Z,6.50
2023-02-08T17:13:48.624Z,6.17
2023-02-08T17:16:19.429Z,9.57
2023-02-08T17:18:47.756Z,5.60
2023-02-08T17:21:15.743Z,7.53
2023-02-08T17:23:45.247Z,5.60
2023-02-08T17:26:16.331Z,5.60
2023-02-08T17:28:44.596Z,4.40
2023-02-08T17:31:13.177Z,5.17
2023-02-08T17:33:41.446Z,5.03
2023-02-08T17:36:10.030Z,5.03
2023-02-08T17:38:39.215Z,4.97
2023-02-08T17:41:08.803Z,4.50
2023-02-08T17:43:37.227Z,5.37
2023-02-08T17:46:10.206Z,4.57
2023-02-08T17:48:37.944Z,5.33
2023-02-08T17:51:09.640Z,6.73
2023-02-08T17:53:42.312Z,7.17
2023-02-08T17:56:13.887Z,13.83
2023-02-08T17:58:41.703Z,10.07
2023-02-08T18:01:17.235Z,7.00
2023-02-08T18:03:45.583Z,9.23
2023-02-08T18:06:13.962Z,13.87
2023-02-08T18:08:42.089Z,12.43
2023-02-08T18:11:15.881Z,13.17
2023-02-08T18:13:44.855Z,10.57
2023-02-08T18:16:15.216Z,9.30
2023-02-08T18:18:44.766Z,9.33
2023-02-08T18:21:15.729Z,11.87
2023-02-08T18:23:44.095Z,10.70
2023-02-08T18:26:15.518Z,11.63
2023-02-08T18:28:43.426Z,11.13
2023-02-08T18:31:14.461Z,11.97
2023-02-08T18:33:43.418Z,10.93
2023-02-08T18:36:12.443Z,14.30
2023-02-08T18:38:40.634Z,12.20
2023-02-08T18:41:09.541Z,12.13
2023-02-08T18:43:40.183Z,12.53
2023-02-08T18:46:10.151Z,13.03
2023-02-08T18:48:37.930Z,9.73
2023-02-08T18:51:06.970Z,10.67
2023-02-08T18:53:36.781Z,12.47
2023-02-08T18:56:06.533Z,11.67
2023-02-08T18:58:34.587Z,9.33
2023-02-08T19:01:08.184Z,9.87
2023-02-08T19:03:36.781Z,9.90
2023-02-08T19:06:08.824Z,10.97
2023-02-08T19:08:37.607Z,7.70
2023-02-08T19:11:05.951Z,7.80
2023-02-08T19:13:35.473Z,7.63
2023-02-08T19:16:03.214Z,9.77
2023-02-08T19:18:32.203Z,7.50
2023-02-08T19:21:04.851Z,7.30
2023-02-08T19:23:32.591Z,5.97
2023-02-08T19:26:02.521Z,6.03
2023-02-08T19:28:32.587Z,6.93
2023-02-08T19:31:04.847Z,6.27
2023-02-08T19:33:33.904Z,6.47
2023-02-08T19:36:08.172Z,7.37
2023-02-08T19:38:36.241Z,7.27
2023-02-08T19:41:04.057Z,10.47
2023-02-08T19:43:31.975Z,8.63
2023-02-08T19:46:01.775Z,9.00
2023-02-08T19:48:29.501Z,8.80
2023-02-08T19:51:00.225Z,8.30
2023-02-08T19:53:28.586Z,7.40
2023-02-08T19:55:57.284Z,8.73
2023-02-08T19:58:25.096Z,8.93
2023-02-08T20:00:53.332Z,7.93
2023-02-08T20:03:22.390Z,8.63
2023-02-08T20:05:50.931Z,8.47
2023-02-08T20:08:20.553Z,7.97
2023-02-08T20:10:50.436Z,10.00
2023-02-08T20:13:18.129Z,9.50
2023-02-08T20:15:46.403Z,13.20
2023-02-08T20:18:15.327Z,10.80
2023-02-08T20:20:45.272Z,11.40
2023-02-08T20:23:22.361Z,12.37
2023-02-08T20:25:51.783Z,9.20
2023-02-08T20:28:19.526Z,9.00
2023-02-08T20:30:47.279Z,9.30
2023-02-08T20:33:15.850Z,9.10
2023-02-08T20:35:43.807Z,9.43
2023-02-08T20:38:11.631Z,9.93
2023-02-08T20:40:39.341Z,8.93
2023-02-08T20:43:08.333Z,8.70
2023-02-08T20:45:36.013Z,7.67
2023-02-08T20:48:03.716Z,8.73
2023-02-08T20:50:33.158Z,13.13
2023-02-08T20:53:00.894Z,10.33
2023-02-08T20:55:28.557Z,7.53
2023-02-08T20:57:56.302Z,9.07
2023-02-08T21:00:33.478Z,8.90
2023-02-08T21:03:07.907Z,11.13
2023-02-08T21:05:35.579Z,9.13
2023-02-08T21:08:03.281Z,16.97
2023-02-08T21:10:30.947Z,17.63
2023-02-08T21:12:59.039Z,19.67
2023-02-08T21:15:28.089Z,19.70
2023-02-08T21:17:55.978Z,26.30
2023-02-08T21:20:23.711Z,24.23
2023-02-08T21:22:51.563Z,18.30
2023-02-08T21:25:19.278Z,15.33
2023-02-08T21:27:47.101Z,12.93
2023-02-08T21:30:15.092Z,19.93
2023-02-08T21:32:44.063Z,19.13
2023-02-08T21:35:11.845Z,17.67
2023-02-08T21:37:39.576Z,20.73
2023-02-08T21:40:07.702Z,13.23
2023-02-08T21:42:35.462Z,13.07
2023-02-08T21:45:03.177Z,11.10
2023-02-08T21:47:30.860Z,11.00
2023-02-08T21:50:17.565Z,13.33
2023-02-08T21:53:02.839Z,8.53
2023-02-08T21:55:30.561Z,7.40
2023-02-08T21:57:58.196Z,6.63
2023-02-08T22:00:26.139Z,5.93
2023-02-08T22:02:53.859Z,6.53
2023-02-08T22:05:22.961Z,6.17
2023-02-08T22:07:52.465Z,6.07
2023-02-08T22:10:21.944Z,7.67
2023-02-08T22:12:52.408Z,6.83
2023-02-08T22:15:22.153Z,7.07
2023-02-08T22:17:53.582Z,6.90
2023-02-08T22:20:21.385Z,6.23
2023-02-08T22:22:53.079Z,6.63
2023-02-08T22:25:22.492Z,7.27
2023-02-08T22:27:50.267Z,6.60
2023-02-08T22:30:19.584Z,6.70
2023-02-08T22:32:49.011Z,6.73
2023-02-08T22:35:18.233Z,7.03
2023-02-08T22:37:45.989Z,6.63
2023-02-08T22:40:15.692Z,6.87
2023-02-08T22:42:43.580Z,7.07
2023-02-08T22:45:11.687Z,6.70
2023-02-08T22:47:39.708Z,6.53
2023-02-08T22:50:08.012Z,7.67
2023-02-08T22:52:35.902Z,6.63
2023-02-08T22:55:04.224Z,6.33
2023-02-08T22:57:33.460Z,6.30
2023-02-08T23:00:01.164Z,6.17
2023-02-08T23:02:29.068Z,6.17
2023-02-08T23:04:56.866Z,6.37
2023-02-08T23:07:24.544Z,6.57
2023-02-08T23:09:52.223Z,6.43
2023-02-08T23:12:19.941Z,7.03
2023-02-08T23:14:49.714Z,5.33
2023-02-08T23:17:17.655Z,5.87
2023-02-08T23:19:45.314Z,6.13
2023-02-08T23:22:13.160Z,6.30
2023-02-08T23:24:40.855Z,5.83
2023-02-08T23:27:08.572Z,5.60
2023-02-08T23:29:36.462Z,5.30
2023-02-08T23:32:05.520Z,5.83
2023-02-08T23:34:35.196Z,6.23
2023-02-08T23:37:03.006Z,5.70
2023-02-08T23:39:33.821Z,5.97
2023-02-08T23:42:01.764Z,5.80
2023-02-08T23:44:29.452Z,6.37
2023-02-08T23:46:57.136Z,5.80
2023-02-08T23:49:26.212Z,5.77
2023-02-08T23:51:54.275Z,5.10
2023-02-08T23:54:21.970Z,5.43
2023-02-08T23:56:51.945Z,4.80
2023-02-08T23:59:19.702Z,5.47
